createdAt,value
2022-11-12T00:00:11.823Z,19.08
2022-11-12T00:05:13.239Z,21.52
2022-11-12T00:10:14.828Z,21.30
2022-11-12T00:15:16.231Z,18.33
2022-11-12T00:20:17.764Z,22.40
2022-11-12T00:25:19.192Z,20.90
2022-11-12T00:30:20.612Z,23.13
2022-11-12T00:35:22.087Z,21.45
2022-11-12T00:40:23.623Z,21.98
2022-11-12T00:45:25.174Z,23.40
2022-11-12T00:50:26.692Z,21.50
2022-11-12T00:55:28.104Z,20.88
2022-11-12T01:00:29.607Z,21.30
2022-11-12T01:05:32.672Z,19.08
2022-11-12T01:10:35.473Z,20.50
2022-11-12T01:15:41.846Z,20.02
2022-11-12T01:20:43.219Z,19.38
2022-11-12T01:25:44.601Z,19.95
2022-11-12T01:30:45.966Z,19.95
2022-11-12T01:35:47.409Z,23.48
2022-11-12T01:40:48.989Z,23.85
2022-11-12T01:45:51.138Z,24.50
2022-11-12T01:50:52.815Z,22.83
2022-11-12T01:55:54.920Z,22.45
2022-11-12T02:00:57.563Z,24.05
2022-11-12T02:06:00.857Z,21.17
2022-11-12T02:11:16.098Z,23.65
2022-11-12T02:16:17.518Z,21.35
2022-11-12T02:21:19.690Z,21.95
2022-11-12T02:26:21.114Z,22.23
2022-11-12T02:31:22.516Z,23.92
2022-11-12T02:36:24.555Z,32.30
2022-11-12T02:41:26.181Z,31.92
2022-11-12T02:46:27.651Z,27.10
2022-11-12T02:51:29.047Z,24.90
2022-11-12T02:56:30.456Z,25.42
2022-11-12T03:01:31.997Z,32.15
2022-11-12T03:06:33.583Z,32.95
2022-11-12T03:11:35.082Z,39.28
2022-11-12T03:16:36.542Z,46.50
2022-11-12T03:21:37.980Z,48.78
2022-11-12T03:26:39.438Z,52.75
2022-11-12T03:31:41.291Z,54.13
2022-11-12T03:36:42.650Z,51.53
2022-11-12T03:41:44.013Z,57.40
2022-11-12T03:46:45.367Z,56.10
2022-11-12T03:51:46.936Z,54.75
2022-11-12T03:56:48.314Z,48.83
2022-11-12T04:01:49.724Z,52.45
2022-11-12T04:07:09.629Z,54.30
2022-11-12T04:12:29.786Z,54.20
2022-11-12T04:17:49.707Z,45.45
2022-11-12T04:22:51.140Z,47.80
2022-11-12T04:27:52.509Z,48.20
2022-11-12T04:32:54.907Z,42.65
2022-11-12T04:37:56.693Z,45.40
2022-11-12T04:43:16.627Z,44.00
2022-11-12T04:48:18.437Z,44.28
2022-11-12T04:53:20.139Z,48.95
2022-11-12T04:58:21.588Z,49.28
2022-11-12T05:03:23.046Z,43.97
2022-11-12T05:08:24.701Z,43.20
2022-11-12T05:13:30.070Z,44.28
2022-11-12T05:18:31.560Z,49.90
2022-11-12T05:23:33.014Z,49.63
2022-11-12T05:28:34.573Z,58.00
2022-11-12T05:33:36.015Z,58.38
2022-11-12T05:38:39.122Z,62.17
2022-11-12T05:43:40.710Z,65.43
2022-11-12T05:48:42.306Z,75.25
2022-11-12T05:53:43.726Z,68.82
2022-11-12T05:58:45.105Z,67.72
2022-11-12T06:03:46.685Z,77.53
2022-11-12T06:08:48.154Z,74.85
2022-11-12T06:13:49.543Z,68.53
2022-11-12T06:18:51.251Z,72.53
2022-11-12T06:23:56.859Z,71.38
2022-11-12T06:28:58.260Z,69.18
2022-11-12T06:34:03.342Z,68.00
2022-11-12T06:39:04.847Z,61.35
2022-11-12T06:44:06.357Z,57.53
2022-11-12T06:49:08.191Z,56.83
2022-11-12T06:54:09.571Z,58.03
2022-11-12T06:59:11.071Z,53.65
2022-11-12T07:04:12.610Z,50.22
2022-11-12T07:09:14.069Z,55.45
2022-11-12T07:14:15.552Z,55.88
2022-11-12T07:19:17.120Z,52.88
2022-11-12T07:24:18.550Z,55.33
2022-11-12T07:29:35.594Z,50.53
2022-11-12T07:34:44.272Z,44.50
2022-11-12T07:39:45.799Z,47.92
2022-11-12T07:44:47.365Z,46.88
2022-11-12T07:49:48.803Z,47.15
2022-11-12T07:54:50.592Z,53.58
2022-11-12T07:59:52.447Z,45.30
2022-11-12T08:04:53.966Z,51.38
2022-11-12T08:09:55.580Z,52.67
2022-11-12T08:14:57.049Z,53.88
2022-11-12T08:19:58.774Z,57.67
2022-11-12T08:25:00.156Z,61.22
2022-11-12T08:30:02.091Z,63.92
2022-11-12T08:35:03.590Z,61.13
2022-11-12T08:40:05.228Z,72.78
2022-11-12T08:45:07.030Z,70.47
2022-11-12T08:50:08.667Z,64.00
2022-11-12T08:55:10.142Z,63.42
2022-11-12T09:00:12.550Z,70.30
2022-11-12T09:05:13.967Z,75.65
2022-11-12T09:10:15.360Z,71.70
2022-11-12T09:20:38.198Z,83.18
2022-11-12T09:25:41.454Z,70.75
2022-11-12T09:30:46.640Z,69.82
2022-11-12T09:35:48.762Z,71.43
2022-11-12T09:40:52.960Z,69.15
2022-11-12T09:46:21.466Z,67.50
2022-11-12T09:51:40.686Z,66.55
2022-11-12T09:56:42.140Z,70.80
2022-11-12T10:01:58.379Z,77.28
2022-11-12T10:06:59.916Z,75.15
2022-11-12T10:12:32.521Z,69.70
2022-11-12T10:17:47.820Z,61.13
2022-11-12T10:22:58.491Z,61.35
2022-11-12T10:28:02.840Z,61.22
2022-11-12T10:33:04.382Z,60.28
2022-11-12T10:38:08.858Z,52.30
2022-11-12T10:43:16.320Z,47.25
2022-11-12T10:48:30.684Z,41.95
2022-11-12T10:53:34.451Z,40.05
2022-11-12T10:58:35.817Z,45.15
2022-11-12T11:03:44.819Z,42.58
2022-11-12T11:08:50.434Z,38.37
2022-11-12T11:13:55.833Z,40.70
2022-11-12T11:19:05.240Z,40.47
2022-11-12T11:24:12.581Z,42.78
2022-11-12T11:29:32.598Z,40.55
2022-11-12T11:34:49.313Z,37.83
2022-11-12T11:40:01.599Z,34.67
2022-11-12T11:45:09.879Z,39.67
2022-11-12T11:50:16.931Z,38.38
2022-11-12T11:55:28.499Z,38.13
2022-11-12T12:00:48.988Z,40.55
2022-11-12T12:05:50.357Z,48.90
2022-11-12T12:11:12.347Z,46.75
2022-11-12T12:16:33.733Z,40.00
2022-11-12T12:21:36.055Z,38.83
2022-11-12T12:26:40.561Z,38.28
2022-11-12T12:31:45.526Z,39.42
2022-11-12T12:36:49.640Z,42.28
2022-11-12T12:42:02.020Z,38.67
2022-11-12T12:47:03.731Z,39.75
2022-11-12T12:52:07.161Z,36.70
2022-11-12T12:57:27.242Z,34.17
2022-11-12T13:02:28.697Z,34.42
2022-11-12T13:07:41.889Z,34.78
2022-11-12T13:13:02.901Z,29.98
2022-11-12T13:18:12.832Z,26.92
2022-11-12T13:23:57.255Z,28.08
2022-11-12T13:29:17.482Z,30.23
2022-11-12T13:34:28.958Z,26.17
2022-11-12T13:39:32.426Z,26.15
2022-11-12T13:44:35.255Z,25.55
2022-11-12T13:49:37.128Z,26.63
2022-11-12T13:54:39.019Z,28.25
2022-11-12T13:59:40.788Z,27.65
2022-11-12T14:04:42.306Z,28.50
2022-11-12T14:10:07.026Z,27.40
2022-11-12T14:15:20.747Z,24.83
2022-11-12T14:20:27.825Z,24.63
2022-11-12T14:25:29.366Z,28.48
2022-11-12T14:30:32.189Z,25.02
2022-11-12T14:35:34.965Z,26.30
2022-11-12T14:40:37.683Z,25.10
2022-11-12T14:45:47.107Z,28.77
2022-11-12T14:50:51.046Z,24.38
2022-11-12T14:55:53.774Z,23.25
2022-11-12T15:00:57.603Z,25.50
2022-11-12T15:06:11.855Z,25.33
2022-11-12T15:11:20.421Z,26.23
2022-11-12T15:21:26.059Z,23.98
2022-11-12T15:26:33.507Z,24.20
2022-11-12T15:31:43.104Z,25.77
2022-11-12T15:36:44.684Z,26.63
2022-11-12T15:41:46.425Z,23.05
2022-11-12T15:46:47.905Z,25.17
2022-11-12T15:51:49.476Z,24.92
2022-11-12T15:56:51.134Z,25.02
2022-11-12T16:01:52.833Z,27.33
2022-11-12T16:06:54.384Z,24.77
2022-11-12T16:11:57.513Z,26.02
2022-11-12T16:16:59.006Z,25.67
2022-11-12T16:22:01.039Z,24.48
2022-11-12T16:27:07.676Z,26.25
2022-11-12T16:32:13.031Z,23.02
2022-11-12T16:37:14.660Z,23.20
2022-11-12T16:42:16.072Z,27.27
2022-11-12T16:47:17.499Z,27.15
2022-11-12T16:52:19.089Z,26.73
2022-11-12T16:57:20.501Z,26.98
2022-11-12T17:02:22.423Z,25.85
2022-11-12T17:07:24.353Z,29.85
2022-11-12T17:12:27.621Z,30.52
2022-11-12T17:17:29.145Z,30.48
2022-11-12T17:22:31.440Z,27.88
2022-11-12T17:27:32.834Z,29.73
2022-11-12T17:32:34.259Z,29.92
2022-11-12T17:37:35.691Z,26.08
2022-11-12T17:42:37.244Z,28.30
2022-11-12T17:47:40.621Z,28.50
2022-11-12T17:52:42.232Z,27.98
2022-11-12T17:57:43.724Z,28.15
2022-11-12T18:02:45.273Z,27.58
2022-11-12T18:07:46.734Z,27.92
2022-11-12T18:12:50.586Z,26.08
2022-11-12T18:17:52.273Z,29.90
2022-11-12T18:22:53.639Z,24.98
2022-11-12T18:27:55.236Z,26.67
2022-11-12T18:32:56.756Z,28.17
2022-11-12T18:37:58.622Z,29.08
2022-11-12T18:43:00.258Z,29.65
2022-11-12T18:48:01.893Z,30.90
2022-11-12T18:53:03.328Z,30.73
2022-11-12T18:58:07.841Z,30.25
2022-11-12T19:03:16.102Z,27.50
2022-11-12T19:08:19.402Z,26.63
2022-11-12T19:13:21.248Z,28.33
2022-11-12T19:18:22.620Z,31.85
2022-11-12T19:23:24.167Z,53.17
2022-11-12T19:28:25.946Z,34.15
2022-11-12T19:33:27.570Z,30.00
2022-11-12T19:38:29.730Z,29.63
2022-11-12T19:43:31.646Z,27.92
2022-11-12T19:48:33.412Z,25.38
2022-11-12T19:53:40.963Z,30.02
2022-11-12T19:58:46.161Z,28.15
2022-11-12T20:03:47.678Z,31.00
2022-11-12T20:08:51.834Z,28.00
2022-11-12T20:13:53.950Z,29.30
2022-11-12T20:18:55.878Z,28.85
2022-11-12T20:23:57.598Z,30.42
2022-11-12T20:28:58.996Z,29.63
2022-11-12T20:34:01.467Z,28.38
2022-11-12T20:39:03.145Z,27.20
2022-11-12T20:44:04.728Z,24.38
2022-11-12T20:49:08.553Z,24.95
2022-11-12T20:54:10.667Z,27.65
2022-11-12T20:59:12.110Z,27.20
2022-11-12T21:04:13.693Z,28.10
2022-11-12T21:09:15.090Z,24.58
2022-11-12T21:14:16.667Z,25.50
2022-11-12T21:19:20.073Z,24.95
2022-11-12T21:24:21.449Z,27.15
2022-11-12T21:29:22.887Z,24.25
2022-11-12T21:34:24.354Z,25.92
2022-11-12T21:39:25.738Z,25.58
2022-11-12T21:44:27.181Z,29.23
2022-11-12T21:49:28.564Z,28.48
2022-11-12T21:54:30.007Z,25.80
2022-11-12T21:59:31.492Z,29.90
2022-11-12T22:04:32.948Z,28.08
2022-11-12T22:09:34.371Z,27.60
2022-11-12T22:14:35.798Z,28.73
2022-11-12T22:19:39.187Z,27.73
2022-11-12T22:24:40.588Z,27.60
2022-11-12T22:29:42.361Z,25.98
2022-11-12T22:34:48.324Z,28.08
2022-11-12T22:39:51.078Z,29.50
2022-11-12T22:44:52.842Z,29.45
2022-11-12T22:49:57.203Z,27.10
2022-11-12T22:55:02.024Z,27.98
2022-11-12T23:00:07.058Z,29.60
2022-11-12T23:05:08.730Z,29.33
2022-11-12T23:10:10.117Z,28.23
2022-11-12T23:15:15.245Z,27.85
2022-11-12T23:20:34.768Z,27.60
2022-11-12T23:25:36.635Z,29.67
2022-11-12T23:30:38.113Z,26.63
2022-11-12T23:35:39.481Z,26.27
2022-11-12T23:40:40.959Z,29.92
2022-11-12T23:45:48.733Z,31.13
2022-11-12T23:50:59.951Z,28.88
2022-11-12T23:56:04.425Z,33.03
